createdAt,value
2022-11-29T00:01:11.002Z,17.57
2022-11-29T00:03:37.672Z,19.20
2022-11-29T00:06:08.553Z,18.30
2022-11-29T00:08:35.446Z,18.43
2022-11-29T00:11:39.566Z,18.87
2022-11-29T00:14:07.873Z,18.60
2022-11-29T00:16:34.779Z,18.70
2022-11-29T00:19:01.709Z,17.50
2022-11-29T00:21:28.369Z,18.60
2022-11-29T00:23:55.395Z,18.17
2022-11-29T00:26:21.958Z,18.87
2022-11-29T00:28:48.496Z,18.00
2022-11-29T00:31:26.540Z,17.43
2022-11-29T00:33:53.273Z,17.83
2022-11-29T00:36:20.100Z,18.20
2022-11-29T00:38:46.640Z,18.53
2022-11-29T00:41:13.448Z,18.03
2022-11-29T00:43:40.467Z,19.50
2022-11-29T00:46:07.861Z,20.87
2022-11-29T00:48:34.848Z,20.00
2022-11-29T00:51:02.980Z,18.93
2022-11-29T00:53:29.827Z,18.83
2022-11-29T00:55:56.425Z,21.53
2022-11-29T00:58:23.296Z,19.50
2022-11-29T01:00:50.147Z,18.03
2022-11-29T01:03:17.219Z,18.70
2022-11-29T01:05:44.412Z,20.30
2022-11-29T01:08:12.645Z,19.63
2022-11-29T01:10:39.128Z,20.20
2022-11-29T01:13:06.092Z,22.37
2022-11-29T01:15:32.847Z,20.13
2022-11-29T01:17:59.491Z,19.70
2022-11-29T01:20:26.280Z,22.80
2022-11-29T01:22:53.308Z,24.50
2022-11-29T01:25:20.247Z,24.10
2022-11-29T01:27:46.846Z,22.17
2022-11-29T01:30:13.414Z,24.50
2022-11-29T01:32:39.926Z,23.97
2022-11-29T01:35:07.293Z,22.63
2022-11-29T01:37:33.785Z,21.60
2022-11-29T01:40:00.506Z,23.90
2022-11-29T01:42:27.091Z,24.70
2022-11-29T01:45:02.895Z,23.73
2022-11-29T01:47:29.965Z,21.33
2022-11-29T01:49:56.584Z,23.40
2022-11-29T01:52:26.377Z,20.43
2022-11-29T01:54:57.125Z,23.10
2022-11-29T01:57:24.051Z,20.93
2022-11-29T01:59:54.266Z,21.33
2022-11-29T02:02:31.216Z,21.73
2022-11-29T02:04:58.542Z,18.63
2022-11-29T02:07:25.287Z,21.50
2022-11-29T02:09:51.834Z,20.73
2022-11-29T02:12:42.935Z,16.23
2022-11-29T02:15:27.153Z,20.00
2022-11-29T02:18:04.982Z,20.03
2022-11-29T02:20:40.520Z,20.30
2022-11-29T02:23:39.467Z,18.60
2022-11-29T02:26:18.147Z,17.97
2022-11-29T02:29:06.466Z,17.23
2022-11-29T02:31:59.190Z,19.07
2022-11-29T02:34:31.772Z,18.00
2022-11-29T02:37:20.740Z,18.70
2022-11-29T02:40:14.818Z,20.00
2022-11-29T02:42:56.773Z,17.80
2022-11-29T02:45:42.094Z,19.43
2022-11-29T02:48:17.591Z,19.47
2022-11-29T02:50:46.736Z,20.57
2022-11-29T02:53:31.048Z,19.70
2022-11-29T02:56:20.785Z,19.30
2022-11-29T02:58:56.409Z,18.10
2022-11-29T03:01:58.995Z,18.20
2022-11-29T03:04:26.152Z,17.67
2022-11-29T03:07:03.937Z,18.03
2022-11-29T03:09:42.766Z,17.90
2022-11-29T03:12:40.700Z,17.00
2022-11-29T03:15:28.953Z,16.40
2022-11-29T03:18:16.842Z,15.00
2022-11-29T03:20:59.948Z,16.80
2022-11-29T03:23:32.972Z,16.93
2022-11-29T03:26:07.945Z,16.90
2022-11-29T03:28:39.980Z,14.83
2022-11-29T03:31:21.677Z,13.77
2022-11-29T03:34:29.502Z,14.93
2022-11-29T03:37:02.697Z,12.53
2022-11-29T03:39:41.811Z,14.10
2022-11-29T03:42:12.660Z,16.00
2022-11-29T03:45:05.412Z,14.50
2022-11-29T03:47:40.868Z,17.47
2022-11-29T03:50:20.629Z,15.93
2022-11-29T03:53:03.465Z,15.33
2022-11-29T03:55:33.148Z,16.37
2022-11-29T03:58:14.492Z,16.37
2022-11-29T04:00:49.994Z,17.37
2022-11-29T04:03:38.296Z,19.40
2022-11-29T04:06:14.938Z,16.67
2022-11-29T04:08:53.965Z,17.37
2022-11-29T04:11:29.574Z,16.80
2022-11-29T04:14:15.883Z,17.03
2022-11-29T04:16:48.381Z,17.97
2022-11-29T04:19:33.039Z,18.30
2022-11-29T04:22:26.300Z,18.20
2022-11-29T04:25:10.819Z,17.07
2022-11-29T04:27:43.625Z,18.67
2022-11-29T04:30:22.911Z,19.60
2022-11-29T04:32:55.619Z,19.10
2022-11-29T04:35:22.279Z,21.43
2022-11-29T04:37:58.100Z,20.00
2022-11-29T04:40:33.802Z,17.03
2022-11-29T04:43:34.913Z,19.33
2022-11-29T04:46:13.449Z,21.27
2022-11-29T04:48:47.254Z,20.43
2022-11-29T04:51:22.692Z,19.03
2022-11-29T04:54:22.830Z,19.97
2022-11-29T04:56:54.971Z,19.17
2022-11-29T04:59:39.355Z,18.27
2022-11-29T05:02:36.685Z,19.37
2022-11-29T05:05:17.971Z,21.33
2022-11-29T05:07:52.978Z,19.27
2022-11-29T05:10:58.828Z,19.83
2022-11-29T05:14:13.374Z,20.10
2022-11-29T05:16:53.848Z,18.00
2022-11-29T05:19:49.568Z,18.60
2022-11-29T05:22:31.016Z,25.00
2022-11-29T05:25:02.267Z,18.77
2022-11-29T05:27:47.734Z,18.50
2022-11-29T05:30:22.806Z,20.20
2022-11-29T05:32:57.842Z,19.97
2022-11-29T05:35:29.434Z,21.30
2022-11-29T05:38:24.218Z,23.03
2022-11-29T05:41:03.552Z,24.47
2022-11-29T05:43:45.612Z,24.70
2022-11-29T05:46:19.326Z,25.37
2022-11-29T05:49:18.676Z,25.50
2022-11-29T05:51:57.282Z,24.17
2022-11-29T05:54:26.713Z,26.53
2022-11-29T05:57:04.106Z,23.37
2022-11-29T05:59:31.333Z,25.27
2022-11-29T06:02:11.417Z,25.93
2022-11-29T06:05:09.067Z,22.80
2022-11-29T06:08:01.950Z,27.30
2022-11-29T06:10:32.944Z,25.07
2022-11-29T06:13:19.452Z,24.37
2022-11-29T06:16:08.801Z,26.83
2022-11-29T06:18:57.256Z,23.53
2022-11-29T06:21:39.097Z,26.40
2022-11-29T06:24:13.675Z,22.70
2022-11-29T06:27:06.463Z,23.87
2022-11-29T06:29:56.739Z,20.80
2022-11-29T06:32:29.428Z,22.80
2022-11-29T06:35:07.882Z,20.77
2022-11-29T06:37:43.644Z,19.23
2022-11-29T06:40:12.201Z,19.40
2022-11-29T06:42:38.750Z,21.23
2022-11-29T06:45:06.186Z,18.80
2022-11-29T06:47:38.886Z,18.20
2022-11-29T06:50:24.001Z,18.87
2022-11-29T06:52:58.358Z,17.80
2022-11-29T06:55:34.482Z,17.60
2022-11-29T06:58:21.740Z,17.17
2022-11-29T07:01:11.946Z,17.10
2022-11-29T07:04:02.433Z,17.87
2022-11-29T07:06:29.796Z,18.53
2022-11-29T07:09:00.164Z,18.80
2022-11-29T07:11:27.416Z,18.40
2022-11-29T07:13:54.528Z,16.70
2022-11-29T07:16:57.597Z,18.87
2022-11-29T07:19:41.631Z,17.53
2022-11-29T07:22:36.260Z,17.60
2022-11-29T07:25:08.940Z,17.63
2022-11-29T07:27:41.788Z,17.33
2022-11-29T07:30:21.344Z,18.60
2022-11-29T07:33:06.788Z,18.30
2022-11-29T07:35:51.505Z,18.47
2022-11-29T07:38:41.617Z,17.87
2022-11-29T07:41:18.627Z,19.23
2022-11-29T07:43:50.279Z,18.57
2022-11-29T07:46:16.763Z,18.47
2022-11-29T07:48:43.626Z,18.93
2022-11-29T07:51:10.580Z,19.83
2022-11-29T07:53:43.007Z,19.43
2022-11-29T07:56:09.831Z,17.80
2022-11-29T07:58:36.387Z,18.77
2022-11-29T08:01:03.417Z,17.90
2022-11-29T08:03:30.048Z,17.27
2022-11-29T08:05:56.520Z,17.87
2022-11-29T08:08:23.029Z,19.17
2022-11-29T08:10:49.502Z,19.63
2022-11-29T08:13:16.020Z,18.77
2022-11-29T08:15:45.848Z,19.73
2022-11-29T08:18:12.811Z,19.87
2022-11-29T08:20:41.577Z,20.47
2022-11-29T08:23:11.192Z,18.60
2022-11-29T08:25:37.722Z,18.50
2022-11-29T08:28:05.090Z,17.73
2022-11-29T08:30:31.942Z,18.70
2022-11-29T08:32:58.475Z,20.10
2022-11-29T08:35:24.897Z,17.87
2022-11-29T08:37:51.772Z,18.60
2022-11-29T08:40:18.507Z,19.77
2022-11-29T08:42:45.046Z,17.47
2022-11-29T08:45:11.738Z,17.80
2022-11-29T08:47:39.166Z,19.20
2022-11-29T08:50:12.410Z,18.43
2022-11-29T08:53:01.954Z,19.43
2022-11-29T08:55:33.275Z,18.33
2022-11-29T08:58:05.396Z,19.50
2022-11-29T09:00:32.599Z,19.20
2022-11-29T09:03:19.192Z,18.70
2022-11-29T09:05:45.804Z,19.00
2022-11-29T09:08:12.279Z,17.63
2022-11-29T09:10:42.432Z,18.70
2022-11-29T09:13:10.167Z,19.83
2022-11-29T09:15:38.009Z,19.33
2022-11-29T09:18:05.769Z,17.40
2022-11-29T09:20:33.499Z,18.30
2022-11-29T09:23:00.605Z,18.70
2022-11-29T09:25:27.941Z,18.10
2022-11-29T09:27:57.870Z,18.13
2022-11-29T09:30:24.482Z,20.17
2022-11-29T09:32:51.180Z,16.53
2022-11-29T09:35:18.233Z,16.80
2022-11-29T09:37:44.735Z,19.27
2022-11-29T09:40:21.530Z,17.00
2022-11-29T09:42:57.848Z,16.47
2022-11-29T09:45:30.562Z,17.87
2022-11-29T09:48:20.984Z,19.07
2022-11-29T09:50:56.524Z,16.73
2022-11-29T09:53:44.800Z,17.33
2022-11-29T09:56:17.936Z,18.27
2022-11-29T09:58:53.123Z,18.27
2022-11-29T10:01:24.977Z,18.30
2022-11-29T10:03:54.695Z,17.03
2022-11-29T10:06:27.013Z,18.00
2022-11-29T10:09:04.568Z,16.63
2022-11-29T10:11:42.302Z,18.70
2022-11-29T10:14:17.827Z,18.30
2022-11-29T10:16:44.407Z,16.23
2022-11-29T10:19:18.472Z,15.27
2022-11-29T10:21:57.287Z,17.17
2022-11-29T10:24:25.125Z,16.93
2022-11-29T10:26:51.559Z,16.40
2022-11-29T10:29:18.031Z,15.10
2022-11-29T10:31:49.263Z,16.23
2022-11-29T10:34:18.299Z,15.67
2022-11-29T10:36:47.910Z,15.40
2022-11-29T10:39:21.187Z,15.07
2022-11-29T10:41:53.625Z,13.80
2022-11-29T10:44:21.043Z,14.00
2022-11-29T10:46:47.763Z,14.53
2022-11-29T10:49:17.124Z,16.30
2022-11-29T10:51:44.027Z,16.37
2022-11-29T10:54:28.854Z,15.60
2022-11-29T10:56:57.187Z,14.73
2022-11-29T10:59:25.889Z,15.30
2022-11-29T11:01:52.779Z,14.90
2022-11-29T11:04:28.883Z,14.87
2022-11-29T11:07:03.431Z,15.37
2022-11-29T11:09:35.758Z,18.23
2022-11-29T11:12:11.621Z,15.90
2022-11-29T11:14:38.715Z,17.17
2022-11-29T11:17:30.067Z,15.40
2022-11-29T11:20:18.830Z,17.50
2022-11-29T11:22:59.795Z,14.53
2022-11-29T11:25:37.489Z,15.40
2022-11-29T11:28:18.126Z,15.27
2022-11-29T11:30:50.713Z,15.20
2022-11-29T11:33:20.278Z,16.17
2022-11-29T11:36:05.744Z,13.87
2022-11-29T11:38:33.624Z,16.10
2022-11-29T11:41:22.704Z,14.50
2022-11-29T11:43:51.673Z,15.63
2022-11-29T11:46:18.426Z,14.67
2022-11-29T11:48:46.925Z,13.57
2022-11-29T11:51:25.798Z,14.50
2022-11-29T11:53:55.493Z,14.60
2022-11-29T11:56:23.585Z,13.63
2022-11-29T11:58:52.645Z,14.70
2022-11-29T12:01:27.427Z,14.87
2022-11-29T12:04:12.226Z,12.90
2022-11-29T12:06:54.912Z,13.10
2022-11-29T12:09:53.063Z,13.80
2022-11-29T12:12:39.117Z,14.93
2022-11-29T12:15:17.836Z,13.03
2022-11-29T12:17:58.367Z,14.33
2022-11-29T12:20:32.979Z,14.47
2022-11-29T12:23:09.344Z,13.63
2022-11-29T12:25:45.065Z,15.60
2022-11-29T12:28:18.608Z,14.70
2022-11-29T12:31:02.713Z,15.70
2022-11-29T12:33:38.282Z,14.37
2022-11-29T12:36:21.871Z,15.23
2022-11-29T12:39:06.606Z,15.90
2022-11-29T12:41:35.884Z,14.80
2022-11-29T12:44:11.463Z,14.60
2022-11-29T12:46:38.662Z,16.83
2022-11-29T12:49:31.997Z,18.20
2022-11-29T12:52:16.413Z,16.33
2022-11-29T12:54:49.055Z,18.23
2022-11-29T12:57:33.988Z,19.20
2022-11-29T13:00:13.498Z,19.83
2022-11-29T13:03:25.791Z,18.43
2022-11-29T13:06:14.273Z,20.10
2022-11-29T13:09:08.183Z,21.00
2022-11-29T13:11:36.669Z,21.77
2022-11-29T13:14:40.821Z,24.57
2022-11-29T13:17:06.237Z,22.60
2022-11-29T13:20:02.214Z,23.97
2022-11-29T13:22:46.465Z,22.20
2022-11-29T13:25:19.578Z,22.27
2022-11-29T13:27:56.826Z,24.10
2022-11-29T13:30:23.997Z,23.80
2022-11-29T13:32:58.519Z,23.97
2022-11-29T13:35:50.308Z,24.43
2022-11-29T13:38:27.111Z,22.07
2022-11-29T13:41:08.408Z,20.97
2022-11-29T13:44:13.324Z,22.87
2022-11-29T13:46:49.463Z,21.27
2022-11-29T13:49:43.099Z,20.83
2022-11-29T13:52:41.797Z,25.90
2022-11-29T13:55:11.588Z,25.07
2022-11-29T13:58:14.352Z,23.57
2022-11-29T14:00:42.568Z,24.97
2022-11-29T14:03:24.481Z,22.67
2022-11-29T14:05:53.417Z,22.80
2022-11-29T14:08:24.481Z,24.60
2022-11-29T14:10:53.343Z,26.17
2022-11-29T14:13:22.745Z,23.87
2022-11-29T14:15:58.683Z,22.30
2022-11-29T14:18:38.053Z,23.20
2022-11-29T14:21:05.016Z,24.63
2022-11-29T14:23:35.688Z,23.80
2022-11-29T14:26:02.117Z,24.40
2022-11-29T14:28:32.492Z,25.17
2022-11-29T14:31:04.326Z,25.33
2022-11-29T14:33:43.089Z,26.37
2022-11-29T14:36:17.424Z,24.00
2022-11-29T14:38:54.365Z,23.87
2022-11-29T14:41:39.980Z,26.63
2022-11-29T14:44:16.034Z,24.37
2022-11-29T14:46:43.643Z,22.83
2022-11-29T14:49:21.822Z,24.60
2022-11-29T14:52:07.128Z,25.60
2022-11-29T14:54:35.183Z,26.10
2022-11-29T14:57:39.363Z,26.20
2022-11-29T15:00:11.154Z,25.87
2022-11-29T15:02:49.786Z,25.50
2022-11-29T15:05:18.766Z,27.20
2022-11-29T15:08:16.363Z,28.00
2022-11-29T15:10:54.588Z,27.97
2022-11-29T15:13:29.295Z,27.63
2022-11-29T15:16:21.877Z,30.43
2022-11-29T15:19:15.782Z,27.40
2022-11-29T15:21:54.651Z,28.27
2022-11-29T15:24:28.031Z,25.77
2022-11-29T15:26:59.831Z,26.53
2022-11-29T15:29:30.597Z,29.57
2022-11-29T15:32:04.104Z,26.07
2022-11-29T15:34:34.634Z,28.60
2022-11-29T15:37:01.360Z,28.57
2022-11-29T15:39:36.116Z,30.57
2022-11-29T15:42:08.212Z,31.90
2022-11-29T15:44:34.817Z,28.30
2022-11-29T15:47:21.663Z,26.83
2022-11-29T15:49:48.905Z,27.13
2022-11-29T15:52:36.567Z,28.27
2022-11-29T15:55:06.169Z,25.80
2022-11-29T15:57:35.749Z,29.03
2022-11-29T16:00:05.654Z,25.70
2022-11-29T16:02:34.801Z,27.90
2022-11-29T16:05:30.640Z,25.60
2022-11-29T16:08:03.157Z,25.30
2022-11-29T16:10:36.050Z,30.23
2022-11-29T16:13:22.300Z,27.67
2022-11-29T16:15:48.833Z,26.53
2022-11-29T16:18:20.896Z,30.27
2022-11-29T16:21:01.183Z,28.40
2022-11-29T16:23:43.905Z,28.20
2022-11-29T16:26:30.608Z,28.17
2022-11-29T16:29:00.089Z,30.60
2022-11-29T16:31:36.720Z,29.10
2022-11-29T16:34:17.869Z,28.43
2022-11-29T16:36:44.417Z,28.17
2022-11-29T16:39:22.776Z,28.60
2022-11-29T16:42:26.232Z,30.97
2022-11-29T16:45:04.600Z,27.80
2022-11-29T16:47:46.483Z,28.10
2022-11-29T16:50:16.358Z,28.93
2022-11-29T16:52:42.941Z,27.80
2022-11-29T16:55:09.678Z,28.30
2022-11-29T16:57:36.426Z,29.63
2022-11-29T17:00:29.123Z,29.60
2022-11-29T17:02:55.801Z,26.60
2022-11-29T17:05:22.349Z,30.70
2022-11-29T17:07:49.395Z,28.53
2022-11-29T17:10:18.706Z,28.57
2022-11-29T17:12:48.307Z,30.50
2022-11-29T17:15:15.111Z,28.30
2022-11-29T17:17:43.420Z,24.17
2022-11-29T17:20:11.712Z,27.83
2022-11-29T17:22:38.294Z,27.30
2022-11-29T17:25:05.193Z,26.00
2022-11-29T17:27:32.604Z,26.67
2022-11-29T17:29:59.104Z,25.93
2022-11-29T17:32:26.969Z,25.60
2022-11-29T17:34:53.950Z,24.60
2022-11-29T17:37:20.490Z,24.80
2022-11-29T17:39:48.967Z,25.30
2022-11-29T17:42:15.517Z,25.27
2022-11-29T17:44:42.168Z,26.50
2022-11-29T17:47:08.630Z,26.30
2022-11-29T17:49:35.115Z,24.33
2022-11-29T17:52:01.716Z,26.23
2022-11-29T17:54:28.283Z,28.27
2022-11-29T17:56:55.153Z,25.73
2022-11-29T17:59:21.763Z,26.40
2022-11-29T18:01:48.593Z,25.70
2022-11-29T18:04:15.355Z,23.63
2022-11-29T18:06:42.174Z,23.13
2022-11-29T18:09:10.033Z,23.73
2022-11-29T18:11:47.660Z,24.80
2022-11-29T18:14:21.025Z,23.53
2022-11-29T18:16:48.247Z,23.60
2022-11-29T18:19:19.185Z,23.93
2022-11-29T18:21:45.903Z,26.03
2022-11-29T18:24:12.497Z,22.97
2022-11-29T18:26:39.771Z,24.93
2022-11-29T18:29:06.812Z,21.83
2022-11-29T18:31:35.568Z,22.20
2022-11-29T18:34:03.242Z,21.03
2022-11-29T18:36:31.730Z,21.47
2022-11-29T18:39:00.369Z,20.97
2022-11-29T18:41:28.474Z,20.03
2022-11-29T18:44:05.993Z,20.80
2022-11-29T18:46:32.973Z,20.33
2022-11-29T18:49:00.949Z,21.97
2022-11-29T18:51:29.004Z,21.00
2022-11-29T18:53:55.989Z,22.00
2022-11-29T18:56:24.227Z,21.50
2022-11-29T18:58:58.513Z,22.80
2022-11-29T19:01:30.767Z,19.80
2022-11-29T19:03:59.294Z,21.37
2022-11-29T19:06:38.652Z,22.20
2022-11-29T19:09:06.324Z,20.23
2022-11-29T19:11:34.248Z,22.47
2022-11-29T19:14:03.954Z,21.87
2022-11-29T19:16:32.623Z,20.43
2022-11-29T19:19:00.226Z,23.03
2022-11-29T19:21:28.222Z,21.07
2022-11-29T19:23:56.862Z,21.07
2022-11-29T19:26:26.026Z,21.10
2022-11-29T19:28:53.112Z,22.23
2022-11-29T19:31:22.567Z,23.90
2022-11-29T19:33:49.306Z,24.97
2022-11-29T19:36:18.757Z,22.27
2022-11-29T19:38:50.246Z,22.13
2022-11-29T19:41:26.284Z,25.00
2022-11-29T19:43:53.697Z,23.80
2022-11-29T19:46:23.053Z,25.53
2022-11-29T19:48:51.977Z,23.57
2022-11-29T19:51:19.026Z,22.33
2022-11-29T19:53:46.911Z,23.20
2022-11-29T19:56:16.903Z,21.27
2022-11-29T19:58:44.167Z,23.30
2022-11-29T20:01:13.154Z,20.30
2022-11-29T20:03:40.455Z,19.97
2022-11-29T20:06:08.268Z,20.73
2022-11-29T20:08:35.792Z,21.53
2022-11-29T20:11:12.481Z,20.23
2022-11-29T20:13:40.747Z,20.20
2022-11-29T20:16:12.854Z,22.30
2022-11-29T20:18:45.700Z,20.20
2022-11-29T20:21:23.715Z,22.80
2022-11-29T20:23:55.570Z,24.07
2022-11-29T20:26:23.122Z,24.10
2022-11-29T20:28:49.606Z,22.87
2022-11-29T20:31:18.770Z,23.80
2022-11-29T20:33:46.290Z,24.10
2022-11-29T20:36:18.680Z,23.90
2022-11-29T20:38:51.331Z,24.70
2022-11-29T20:41:40.221Z,25.13
2022-11-29T20:44:07.592Z,26.53
2022-11-29T20:46:34.380Z,27.20
2022-11-29T20:49:06.534Z,29.13
2022-11-29T20:52:02.763Z,29.10
2022-11-29T20:54:29.575Z,27.70
2022-11-29T20:56:56.057Z,30.33
2022-11-29T20:59:22.566Z,27.50
2022-11-29T21:01:49.093Z,29.37
2022-11-29T21:04:20.183Z,27.67
2022-11-29T21:06:49.548Z,28.43
2022-11-29T21:09:16.292Z,29.60
2022-11-29T21:11:43.223Z,29.30
2022-11-29T21:14:09.935Z,34.17
2022-11-29T21:16:36.638Z,33.17
2022-11-29T21:19:03.742Z,33.13
2022-11-29T21:21:56.280Z,33.20
2022-11-29T21:24:34.456Z,33.10
2022-11-29T21:27:01.582Z,32.50
2022-11-29T21:29:28.279Z,33.27
2022-11-29T21:31:55.285Z,31.07
2022-11-29T21:34:21.987Z,32.10
2022-11-29T21:36:53.078Z,32.93
2022-11-29T21:39:19.553Z,34.80
2022-11-29T21:41:46.279Z,36.80
2022-11-29T21:44:12.772Z,36.83
2022-11-29T21:46:39.512Z,39.50
2022-11-29T21:49:06.110Z,39.00
2022-11-29T21:51:32.731Z,38.53
2022-11-29T21:53:59.300Z,38.03
2022-11-29T21:56:25.826Z,38.20
2022-11-29T21:58:52.711Z,41.17
2022-11-29T22:01:20.413Z,39.37
2022-11-29T22:03:47.463Z,37.60
2022-11-29T22:06:18.515Z,39.37
2022-11-29T22:08:45.031Z,38.30
2022-11-29T22:11:31.024Z,37.87
2022-11-29T22:14:14.006Z,35.27
2022-11-29T22:16:47.609Z,34.47
2022-11-29T22:19:16.685Z,34.20
2022-11-29T22:21:44.819Z,32.90
2022-11-29T22:24:13.156Z,31.33
2022-11-29T22:26:40.030Z,34.60
2022-11-29T22:29:06.820Z,33.53
2022-11-29T22:31:33.505Z,33.87
2022-11-29T22:34:00.333Z,36.10
2022-11-29T22:36:26.942Z,33.60
2022-11-29T22:38:53.664Z,35.70
2022-11-29T22:41:20.763Z,36.87
2022-11-29T22:43:47.288Z,36.80
2022-11-29T22:46:16.816Z,37.63
2022-11-29T22:48:44.450Z,36.40
2022-11-29T22:51:16.033Z,33.70
2022-11-29T22:53:47.813Z,34.30
2022-11-29T22:56:14.709Z,33.43
2022-11-29T22:58:41.223Z,34.10
2022-11-29T23:01:14.181Z,31.93
2022-11-29T23:03:48.027Z,33.80
2022-11-29T23:06:16.852Z,34.73
2022-11-29T23:08:44.563Z,32.50
2022-11-29T23:11:13.704Z,32.23
2022-11-29T23:13:41.340Z,30.57
2022-11-29T23:16:10.136Z,33.40
2022-11-29T23:18:37.104Z,30.97
2022-11-29T23:21:06.360Z,30.90
2022-11-29T23:23:33.387Z,32.63
2022-11-29T23:26:00.493Z,34.63
2022-11-29T23:28:28.322Z,31.70
2022-11-29T23:30:54.988Z,32.07
2022-11-29T23:33:23.263Z,32.07
2022-11-29T23:35:50.853Z,33.07
2022-11-29T23:38:18.014Z,32.03
2022-11-29T23:40:44.718Z,33.57
2022-11-29T23:43:11.237Z,34.43
2022-11-29T23:45:40.819Z,34.00
2022-11-29T23:48:07.626Z,30.90
2022-11-29T23:50:34.149Z,31.10
2022-11-29T23:53:00.678Z,31.63
2022-11-29T23:55:27.565Z,32.63
2022-11-29T23:57:54.033Z,31.73
